sensor_id;sensor_type;location;lat;lon;timestamp;temperature;humidity
19031;DHT22;9648;51.130;13.978;2023-03-01T00:00:52;-5.50;99.90
19031;DHT22;9648;51.130;13.978;2023-03-01T00:03:19;-5.60;99.90
19031;DHT22;9648;51.130;13.978;2023-03-01T00:05:46;-5.60;99.90
19031;DHT22;9648;51.130;13.978;2023-03-01T00:08:14;-5.60;99.90
19031;DHT22;9648;51.130;13.978;2023-03-01T00:10:41;-5.70;99.90
19031;DHT22;9648;51.130;13.978;2023-03-01T00:13:07;-5.70;99.90
19031;DHT22;9648;51.130;13.978;2023-03-01T00:15:38;-5.70;99.90
19031;DHT22;9648;51.130;13.978;2023-03-01T00:18:05;-5.80;99.90
19031;DHT22;9648;51.130;13.978;2023-03-01T00:20:32;-5.80;99.90
19031;DHT22;9648;51.130;13.978;2023-03-01T00:22:59;-5.90;99.90
19031;DHT22;9648;51.130;13.978;2023-03-01T00:25:27;-5.90;99.90
19031;DHT22;9648;51.130;13.978;2023-03-01T00:27:54;-5.90;99.90
19031;DHT22;9648;51.130;13.978;2023-03-01T00:30:20;-5.90;99.90
19031;DHT22;9648;51.130;13.978;2023-03-01T00:32:47;-5.80;99.90
19031;DHT22;9648;51.130;13.978;2023-03-01T00:35:14;-5.90;99.90
19031;DHT22;9648;51.130;13.978;2023-03-01T00:37:40;-5.90;99.90
19031;DHT22;9648;51.130;13.978;2023-03-01T00:40:08;-6.00;99.90
19031;DHT22;9648;51.130;13.978;2023-03-01T00:42:37;-6.00;99.90
19031;DHT22;9648;51.130;13.978;2023-03-01T00:45:04;-6.00;99.90
19031;DHT22;9648;51.130;13.978;2023-03-01T00:47:33;-6.10;99.90
19031;DHT22;9648;51.130;13.978;2023-03-01T00:49:59;-6.10;99.90
19031;DHT22;9648;51.130;13.978;2023-03-01T00:52:26;-6.10;99.90
19031;DHT22;9648;51.130;13.978;2023-03-01T00:54:53;-6.10;99.90
19031;DHT22;9648;51.130;13.978;2023-03-01T00:57:20;-6.10;99.90
19031;DHT22;9648;51.130;13.978;2023-03-01T00:59:48;-6.10;99.90
19031;DHT22;9648;51.130;13.978;2023-03-01T01:02:15;-6.10;99.90
19031;DHT22;9648;51.130;13.978;2023-03-01T01:04:41;-6.20;99.90
19031;DHT22;9648;51.130;13.978;2023-03-01T01:07:08;-6.20;99.90
19031;DHT22;9648;51.130;13.978;2023-03-01T01:09:35;-6.30;99.90
19031;DHT22;9648;51.130;13.978;2023-03-01T01:12:02;-6.30;99.90
19031;DHT22;9648;51.130;13.978;2023-03-01T01:14:29;-6.30;99.90
19031;DHT22;9648;51.130;13.978;2023-03-01T01:16:57;-6.30;99.90
19031;DHT22;9648;51.130;13.978;2023-03-01T01:19:25;-6.30;99.90
19031;DHT22;9648;51.130;13.978;2023-03-01T01:21:52;-6.30;99.90
19031;DHT22;9648;51.130;13.978;2023-03-01T01:24:19;-6.30;99.90
19031;DHT22;9648;51.130;13.978;2023-03-01T01:26:46;-6.30;99.90
19031;DHT22;9648;51.130;13.978;2023-03-01T01:29:16;-6.40;99.90
19031;DHT22;9648;51.130;13.978;2023-03-01T01:31:43;-6.50;99.90
19031;DHT22;9648;51.130;13.978;2023-03-01T01:34:15;-6.50;99.90
19031;DHT22;9648;51.130;13.978;2023-03-01T01:36:42;-6.50;99.90
19031;DHT22;9648;51.130;13.978;2023-03-01T01:39:08;-6.50;99.90
19031;DHT22;9648;51.130;13.978;2023-03-01T01:41:39;-6.50;99.90
19031;DHT22;9648;51.130;13.978;2023-03-01T01:44:21;-6.50;99.90
19031;DHT22;9648;51.130;13.978;2023-03-01T01:46:54;-6.60;99.90
19031;DHT22;9648;51.130;13.978;2023-03-01T01:49:31;-6.60;99.90
19031;DHT22;9648;51.130;13.978;2023-03-01T01:52:07;-6.60;99.90
19031;DHT22;9648;51.130;13.978;2023-03-01T01:54:41;-6.50;99.90
19031;DHT22;9648;51.130;13.978;2023-03-01T01:57:13;-6.50;99.90
19031;DHT22;9648;51.130;13.978;2023-03-01T01:59:44;-6.50;99.90
19031;DHT22;9648;51.130;13.978;2023-03-01T02:02:12;-6.50;99.90
19031;DHT22;9648;51.130;13.978;2023-03-01T02:04:40;-6.50;99.90
19031;DHT22;9648;51.130;13.978;2023-03-01T02:07:14;-6.60;99.90
19031;DHT22;9648;51.130;13.978;2023-03-01T02:09:42;-6.60;99.90
19031;DHT22;9648;51.130;13.978;2023-03-01T02:12:14;-6.60;99.90
19031;DHT22;9648;51.130;13.978;2023-03-01T02:14:45;-6.60;99.90
19031;DHT22;9648;51.130;13.978;2023-03-01T02:17:12;-6.60;99.90
19031;DHT22;9648;51.130;13.978;2023-03-01T02:19:52;-6.70;99.90
19031;DHT22;9648;51.130;13.978;2023-03-01T02:22:23;-6.70;99.90
19031;DHT22;9648;51.130;13.978;2023-03-01T02:24:59;-6.80;99.90
19031;DHT22;9648;51.130;13.978;2023-03-01T02:27:33;-6.80;99.90
19031;DHT22;9648;51.130;13.978;2023-03-01T02:30:05;-6.80;99.90
19031;DHT22;9648;51.130;13.978;2023-03-01T02:32:34;-6.90;99.90
19031;DHT22;9648;51.130;13.978;2023-03-01T02:34:59;-6.90;99.90
19031;DHT22;9648;51.130;13.978;2023-03-01T02:37:26;-6.90;99.90
19031;DHT22;9648;51.130;13.978;2023-03-01T02:39:59;-6.90;99.90
19031;DHT22;9648;51.130;13.978;2023-03-01T02:42:30;-7.00;99.90
19031;DHT22;9648;51.130;13.978;2023-03-01T02:44:58;-6.90;99.90
19031;DHT22;9648;51.130;13.978;2023-03-01T02:47:26;-7.00;99.90
19031;DHT22;9648;51.130;13.978;2023-03-01T02:49:53;-6.90;99.90
19031;DHT22;9648;51.130;13.978;2023-03-01T02:52:33;-6.90;99.90
19031;DHT22;9648;51.130;13.978;2023-03-01T02:55:07;-6.90;99.90
19031;DHT22;9648;51.130;13.978;2023-03-01T02:57:38;-6.90;99.90
19031;DHT22;9648;51.130;13.978;2023-03-01T03:00:09;-6.90;99.90
19031;DHT22;9648;51.130;13.978;2023-03-01T03:02:46;-7.00;99.90
19031;DHT22;9648;51.130;13.978;2023-03-01T03:05:15;-7.00;99.90
19031;DHT22;9648;51.130;13.978;2023-03-01T03:07:44;-7.00;99.90
19031;DHT22;9648;51.130;13.978;2023-03-01T03:10:14;-7.00;99.90
19031;DHT22;9648;51.130;13.978;2023-03-01T03:12:41;-7.00;99.90
19031;DHT22;9648;51.130;13.978;2023-03-01T03:15:10;-7.00;99.90
19031;DHT22;9648;51.130;13.978;2023-03-01T03:17:39;-7.00;99.90
19031;DHT22;9648;51.130;13.978;2023-03-01T03:20:11;-7.00;99.90
19031;DHT22;9648;51.130;13.978;2023-03-01T03:22:39;-7.10;99.90
19031;DHT22;9648;51.130;13.978;2023-03-01T03:25:06;-7.10;99.90
19031;DHT22;9648;51.130;13.978;2023-03-01T03:27:36;-7.20;99.90
19031;DHT22;9648;51.130;13.978;2023-03-01T03:30:04;-7.20;99.90
19031;DHT22;9648;51.130;13.978;2023-03-01T03:32:34;-7.30;99.90
19031;DHT22;9648;51.130;13.978;2023-03-01T03:35:02;-7.30;99.90
19031;DHT22;9648;51.130;13.978;2023-03-01T03:37:36;-7.30;99.90
19031;DHT22;9648;51.130;13.978;2023-03-01T03:40:20;-7.30;99.90
19031;DHT22;9648;51.130;13.978;2023-03-01T03:42:47;-7.30;99.90
19031;DHT22;9648;51.130;13.978;2023-03-01T03:45:14;-7.30;99.90
19031;DHT22;9648;51.130;13.978;2023-03-01T03:47:41;-7.30;99.90
19031;DHT22;9648;51.130;13.978;2023-03-01T03:50:09;-7.40;99.90
19031;DHT22;9648;51.130;13.978;2023-03-01T03:52:38;-7.40;99.90
19031;DHT22;9648;51.130;13.978;2023-03-01T03:55:05;-7.50;99.90
19031;DHT22;9648;51.130;13.978;2023-03-01T03:57:36;-7.50;99.90
19031;DHT22;9648;51.130;13.978;2023-03-01T04:00:04;-7.50;99.90
19031;DHT22;9648;51.130;13.978;2023-03-01T04:02:31;-7.50;99.90
19031;DHT22;9648;51.130;13.978;2023-03-01T04:04:58;-7.50;99.90
19031;DHT22;9648;51.130;13.978;2023-03-01T04:07:25;-7.50;99.90
19031;DHT22;9648;51.130;13.978;2023-03-01T04:09:53;-7.50;99.90
19031;DHT22;9648;51.130;13.978;2023-03-01T04:12:19;-7.50;99.90
19031;DHT22;9648;51.130;13.978;2023-03-01T04:14:48;-7.50;99.90
19031;DHT22;9648;51.130;13.978;2023-03-01T04:17:15;-7.50;99.90
19031;DHT22;9648;51.130;13.978;2023-03-01T04:19:42;-7.60;99.90
19031;DHT22;9648;51.130;13.978;2023-03-01T04:22:09;-7.60;99.90
19031;DHT22;9648;51.130;13.978;2023-03-01T04:24:46;-7.60;99.90
19031;DHT22;9648;51.130;13.978;2023-03-01T04:27:14;-7.60;99.90
19031;DHT22;9648;51.130;13.978;2023-03-01T04:29:40;-7.60;99.90
19031;DHT22;9648;51.130;13.978;2023-03-01T04:32:07;-7.60;99.90
19031;DHT22;9648;51.130;13.978;2023-03-01T04:34:34;-7.60;99.90
19031;DHT22;9648;51.130;13.978;2023-03-01T04:37:00;-7.60;99.90
19031;DHT22;9648;51.130;13.978;2023-03-01T04:39:27;-7.70;99.90
19031;DHT22;9648;51.130;13.978;2023-03-01T04:41:54;-7.70;99.90
19031;DHT22;9648;51.130;13.978;2023-03-01T04:44:22;-7.70;99.90
19031;DHT22;9648;51.130;13.978;2023-03-01T04:46:49;-7.70;99.90
19031;DHT22;9648;51.130;13.978;2023-03-01T04:49:16;-7.80;99.90
19031;DHT22;9648;51.130;13.978;2023-03-01T04:51:42;-7.70;99.90
19031;DHT22;9648;51.130;13.978;2023-03-01T04:54:09;-7.70;99.90
19031;DHT22;9648;51.130;13.978;2023-03-01T04:56:36;-7.80;99.90
19031;DHT22;9648;51.130;13.978;2023-03-01T04:59:03;-7.80;99.90
19031;DHT22;9648;51.130;13.978;2023-03-01T05:01:32;-7.80;99.90
19031;DHT22;9648;51.130;13.978;2023-03-01T05:04:01;-7.80;99.90
19031;DHT22;9648;51.130;13.978;2023-03-01T05:06:31;-7.70;99.90
19031;DHT22;9648;51.130;13.978;2023-03-01T05:08:58;-7.70;99.90
19031;DHT22;9648;51.130;13.978;2023-03-01T05:11:25;-7.80;99.90
19031;DHT22;9648;51.130;13.978;2023-03-01T05:13:53;-7.80;99.90
19031;DHT22;9648;51.130;13.978;2023-03-01T05:16:20;-7.80;99.90
19031;DHT22;9648;51.130;13.978;2023-03-01T05:18:48;-7.80;99.90
19031;DHT22;9648;51.130;13.978;2023-03-01T05:21:17;-7.80;99.90
19031;DHT22;9648;51.130;13.978;2023-03-01T05:23:44;-7.80;99.90
19031;DHT22;9648;51.130;13.978;2023-03-01T05:26:12;-7.80;99.90
19031;DHT22;9648;51.130;13.978;2023-03-01T05:28:40;-7.80;99.90
19031;DHT22;9648;51.130;13.978;2023-03-01T05:31:07;-7.80;99.90
19031;DHT22;9648;51.130;13.978;2023-03-01T05:33:35;-7.80;99.90
19031;DHT22;9648;51.130;13.978;2023-03-01T05:36:05;-7.80;99.90
19031;DHT22;9648;51.130;13.978;2023-03-01T05:38:33;-7.90;99.90
19031;DHT22;9648;51.130;13.978;2023-03-01T05:41:00;-7.80;99.90
19031;DHT22;9648;51.130;13.978;2023-03-01T05:43:30;-7.80;99.90
19031;DHT22;9648;51.130;13.978;2023-03-01T05:45:59;-7.80;99.90
19031;DHT22;9648;51.130;13.978;2023-03-01T05:48:25;-7.90;99.90
19031;DHT22;9648;51.130;13.978;2023-03-01T05:50:52;-7.90;99.90
19031;DHT22;9648;51.130;13.978;2023-03-01T05:53:20;-7.90;99.90
19031;DHT22;9648;51.130;13.978;2023-03-01T05:55:48;-8.00;99.90
19031;DHT22;9648;51.130;13.978;2023-03-01T05:58:17;-8.00;99.90
19031;DHT22;9648;51.130;13.978;2023-03-01T06:00:46;-8.00;99.90
19031;DHT22;9648;51.130;13.978;2023-03-01T06:03:14;-7.90;99.90
19031;DHT22;9648;51.130;13.978;2023-03-01T06:05:41;-7.90;99.90
19031;DHT22;9648;51.130;13.978;2023-03-01T06:08:10;-7.80;99.90
19031;DHT22;9648;51.130;13.978;2023-03-01T06:10:38;-7.80;99.90
19031;DHT22;9648;51.130;13.978;2023-03-01T06:13:05;-7.80;99.90
19031;DHT22;9648;51.130;13.978;2023-03-01T06:15:32;-7.80;99.90
19031;DHT22;9648;51.130;13.978;2023-03-01T06:17:59;-7.80;99.90
19031;DHT22;9648;51.130;13.978;2023-03-01T06:20:29;-7.70;99.90
19031;DHT22;9648;51.130;13.978;2023-03-01T06:22:56;-7.70;99.90
19031;DHT22;9648;51.130;13.978;2023-03-01T06:25:27;-7.70;99.90
19031;DHT22;9648;51.130;13.978;2023-03-01T06:27:55;-7.70;99.90
19031;DHT22;9648;51.130;13.978;2023-03-01T06:30:24;-7.70;99.90
19031;DHT22;9648;51.130;13.978;2023-03-01T06:32:51;-7.60;99.90
19031;DHT22;9648;51.130;13.978;2023-03-01T06:35:18;-7.60;99.90
19031;DHT22;9648;51.130;13.978;2023-03-01T06:37:46;-7.50;99.90
19031;DHT22;9648;51.130;13.978;2023-03-01T06:40:13;-7.50;99.90
19031;DHT22;9648;51.130;13.978;2023-03-01T06:42:44;-7.40;99.90
19031;DHT22;9648;51.130;13.978;2023-03-01T06:45:16;-7.30;99.90
19031;DHT22;9648;51.130;13.978;2023-03-01T06:47:43;-7.20;99.90
19031;DHT22;9648;51.130;13.978;2023-03-01T06:50:10;-7.10;99.90
19031;DHT22;9648;51.130;13.978;2023-03-01T06:52:37;-7.00;99.90
19031;DHT22;9648;51.130;13.978;2023-03-01T06:55:05;-6.90;99.90
19031;DHT22;9648;51.130;13.978;2023-03-01T06:57:32;-6.80;99.90
19031;DHT22;9648;51.130;13.978;2023-03-01T06:59:59;-6.70;99.90
19031;DHT22;9648;51.130;13.978;2023-03-01T07:02:27;-6.60;99.90
19031;DHT22;9648;51.130;13.978;2023-03-01T07:04:53;-6.50;99.90
19031;DHT22;9648;51.130;13.978;2023-03-01T07:07:20;-6.40;99.90
19031;DHT22;9648;51.130;13.978;2023-03-01T07:09:49;-6.30;99.90
19031;DHT22;9648;51.130;13.978;2023-03-01T07:12:16;-6.30;99.90
19031;DHT22;9648;51.130;13.978;2023-03-01T07:14:43;-6.20;99.90
19031;DHT22;9648;51.130;13.978;2023-03-01T07:17:10;-6.10;99.90
19031;DHT22;9648;51.130;13.978;2023-03-01T07:19:38;-6.10;99.90
19031;DHT22;9648;51.130;13.978;2023-03-01T07:22:05;-6.00;99.90
19031;DHT22;9648;51.130;13.978;2023-03-01T07:24:33;-5.90;99.90
19031;DHT22;9648;51.130;13.978;2023-03-01T07:27:00;-5.80;99.90
19031;DHT22;9648;51.130;13.978;2023-03-01T07:29:26;-5.80;99.90
19031;DHT22;9648;51.130;13.978;2023-03-01T07:31:54;-5.70;99.90
19031;DHT22;9648;51.130;13.978;2023-03-01T07:34:20;-5.60;99.90
19031;DHT22;9648;51.130;13.978;2023-03-01T07:36:48;-5.40;99.90
19031;DHT22;9648;51.130;13.978;2023-03-01T07:39:15;-5.30;99.90
19031;DHT22;9648;51.130;13.978;2023-03-01T07:41:42;-5.20;99.90
19031;DHT22;9648;51.130;13.978;2023-03-01T07:44:09;-5.00;99.90
19031;DHT22;9648;51.130;13.978;2023-03-01T07:46:36;-4.90;99.90
19031;DHT22;9648;51.130;13.978;2023-03-01T07:49:02;-4.80;99.90
19031;DHT22;9648;51.130;13.978;2023-03-01T07:51:30;-4.70;99.90
19031;DHT22;9648;51.130;13.978;2023-03-01T07:53:58;-4.60;99.90
19031;DHT22;9648;51.130;13.978;2023-03-01T07:56:24;-4.60;99.90
19031;DHT22;9648;51.130;13.978;2023-03-01T07:58:51;-4.40;99.90
19031;DHT22;9648;51.130;13.978;2023-03-01T08:01:19;-4.30;99.90
19031;DHT22;9648;51.130;13.978;2023-03-01T08:03:46;-4.10;99.90
19031;DHT22;9648;51.130;13.978;2023-03-01T08:06:15;-4.00;99.90
19031;DHT22;9648;51.130;13.978;2023-03-01T08:08:43;-3.80;99.90
19031;DHT22;9648;51.130;13.978;2023-03-01T08:11:14;-3.70;99.90
19031;DHT22;9648;51.130;13.978;2023-03-01T08:13:41;-3.50;99.90
19031;DHT22;9648;51.130;13.978;2023-03-01T08:16:11;-3.50;99.90
19031;DHT22;9648;51.130;13.978;2023-03-01T08:18:39;-3.40;99.90
19031;DHT22;9648;51.130;13.978;2023-03-01T08:21:06;-3.20;99.90
19031;DHT22;9648;51.130;13.978;2023-03-01T08:23:34;-3.10;99.90
19031;DHT22;9648;51.130;13.978;2023-03-01T08:26:05;-3.10;99.90
19031;DHT22;9648;51.130;13.978;2023-03-01T08:28:34;-2.90;99.90
19031;DHT22;9648;51.130;13.978;2023-03-01T08:31:01;-2.80;99.90
19031;DHT22;9648;51.130;13.978;2023-03-01T08:33:28;-2.70;99.90
19031;DHT22;9648;51.130;13.978;2023-03-01T08:36:03;-2.50;99.90
19031;DHT22;9648;51.130;13.978;2023-03-01T08:38:30;-2.40;99.90
19031;DHT22;9648;51.130;13.978;2023-03-01T08:40:59;-2.30;99.90
19031;DHT22;9648;51.130;13.978;2023-03-01T08:43:26;-2.20;99.90
19031;DHT22;9648;51.130;13.978;2023-03-01T08:45:54;-2.10;99.90
19031;DHT22;9648;51.130;13.978;2023-03-01T08:48:21;-2.00;99.90
19031;DHT22;9648;51.130;13.978;2023-03-01T08:50:48;-1.80;99.90
19031;DHT22;9648;51.130;13.978;2023-03-01T08:53:14;-1.80;99.90
19031;DHT22;9648;51.130;13.978;2023-03-01T08:55:41;-1.60;99.90
19031;DHT22;9648;51.130;13.978;2023-03-01T08:58:08;-1.60;99.90
19031;DHT22;9648;51.130;13.978;2023-03-01T09:00:34;-1.40;99.90
19031;DHT22;9648;51.130;13.978;2023-03-01T09:03:03;-1.40;99.90
19031;DHT22;9648;51.130;13.978;2023-03-01T09:05:31;-1.30;99.90
19031;DHT22;9648;51.130;13.978;2023-03-01T09:08:01;-1.20;99.90
19031;DHT22;9648;51.130;13.978;2023-03-01T09:10:28;-1.10;99.90
19031;DHT22;9648;51.130;13.978;2023-03-01T09:12:54;-1.00;99.90
19031;DHT22;9648;51.130;13.978;2023-03-01T09:15:21;-1.00;99.90
19031;DHT22;9648;51.130;13.978;2023-03-01T09:17:47;-0.80;99.90
19031;DHT22;9648;51.130;13.978;2023-03-01T09:20:16;-0.70;99.90
19031;DHT22;9648;51.130;13.978;2023-03-01T09:22:43;-0.60;99.90
19031;DHT22;9648;51.130;13.978;2023-03-01T09:25:09;-0.50;99.90
19031;DHT22;9648;51.130;13.978;2023-03-01T09:27:36;-0.50;99.90
19031;DHT22;9648;51.130;13.978;2023-03-01T09:30:03;-0.40;99.90
19031;DHT22;9648;51.130;13.978;2023-03-01T09:32:30;-0.40;99.90
19031;DHT22;9648;51.130;13.978;2023-03-01T09:34:57;-0.30;99.90
19031;DHT22;9648;51.130;13.978;2023-03-01T09:37:35;-0.20;99.90
19031;DHT22;9648;51.130;13.978;2023-03-01T09:40:03;-0.10;99.90
19031;DHT22;9648;51.130;13.978;2023-03-01T09:42:32;0.00;99.90
19031;DHT22;9648;51.130;13.978;2023-03-01T09:45:03;0.00;99.90
19031;DHT22;9648;51.130;13.978;2023-03-01T09:47:31;0.10;99.90
19031;DHT22;9648;51.130;13.978;2023-03-01T09:50:03;0.10;99.90
19031;DHT22;9648;51.130;13.978;2023-03-01T09:52:39;0.20;99.90
19031;DHT22;9648;51.130;13.978;2023-03-01T09:55:11;0.20;99.90
19031;DHT22;9648;51.130;13.978;2023-03-01T09:57:42;0.30;99.90
19031;DHT22;9648;51.130;13.978;2023-03-01T10:00:23;0.40;99.90
19031;DHT22;9648;51.130;13.978;2023-03-01T10:02:57;0.40;99.90
19031;DHT22;9648;51.130;13.978;2023-03-01T10:05:34;0.50;99.90
19031;DHT22;9648;51.130;13.978;2023-03-01T10:08:19;0.50;99.90
19031;DHT22;9648;51.130;13.978;2023-03-01T10:10:51;0.50;99.90
19031;DHT22;9648;51.130;13.978;2023-03-01T10:13:21;0.60;99.90
19031;DHT22;9648;51.130;13.978;2023-03-01T10:15:52;0.70;99.90
19031;DHT22;9648;51.130;13.978;2023-03-01T10:18:23;0.70;99.90
19031;DHT22;9648;51.130;13.978;2023-03-01T10:20:54;0.80;99.90
19031;DHT22;9648;51.130;13.978;2023-03-01T10:23:24;0.80;99.90
19031;DHT22;9648;51.130;13.978;2023-03-01T10:26:05;0.90;99.90
19031;DHT22;9648;51.130;13.978;2023-03-01T10:28:44;0.90;99.90
19031;DHT22;9648;51.130;13.978;2023-03-01T10:31:14;0.90;99.90
19031;DHT22;9648;51.130;13.978;2023-03-01T10:33:41;1.00;99.90
19031;DHT22;9648;51.130;13.978;2023-03-01T10:36:08;1.10;99.90
19031;DHT22;9648;51.130;13.978;2023-03-01T10:38:50;1.10;99.90
19031;DHT22;9648;51.130;13.978;2023-03-01T10:41:20;1.10;99.90
19031;DHT22;9648;51.130;13.978;2023-03-01T10:43:51;1.20;99.90
19031;DHT22;9648;51.130;13.978;2023-03-01T10:46:27;1.20;99.90
19031;DHT22;9648;51.130;13.978;2023-03-01T10:49:07;1.10;99.90
19031;DHT22;9648;51.130;13.978;2023-03-01T10:51:34;1.10;99.90
19031;DHT22;9648;51.130;13.978;2023-03-01T10:54:02;1.10;99.90
19031;DHT22;9648;51.130;13.978;2023-03-01T10:56:46;1.20;99.90
19031;DHT22;9648;51.130;13.978;2023-03-01T10:59:25;1.30;99.90
19031;DHT22;9648;51.130;13.978;2023-03-01T11:02:16;1.30;99.90
19031;DHT22;9648;51.130;13.978;2023-03-01T11:04:57;1.30;99.90
19031;DHT22;9648;51.130;13.978;2023-03-01T11:07:28;1.40;99.90
19031;DHT22;9648;51.130;13.978;2023-03-01T11:09:56;1.50;99.90
19031;DHT22;9648;51.130;13.978;2023-03-01T11:12:24;1.50;99.90
19031;DHT22;9648;51.130;13.978;2023-03-01T11:14:53;1.50;99.90
19031;DHT22;9648;51.130;13.978;2023-03-01T11:17:24;1.40;99.90
19031;DHT22;9648;51.130;13.978;2023-03-01T11:20:05;1.40;99.90
19031;DHT22;9648;51.130;13.978;2023-03-01T11:22:34;1.50;99.90
19031;DHT22;9648;51.130;13.978;2023-03-01T11:25:03;1.50;99.90
19031;DHT22;9648;51.130;13.978;2023-03-01T11:27:32;1.50;99.90
19031;DHT22;9648;51.130;13.978;2023-03-01T11:30:02;1.60;99.90
19031;DHT22;9648;51.130;13.978;2023-03-01T11:32:35;1.60;99.90
19031;DHT22;9648;51.130;13.978;2023-03-01T11:35:08;1.60;99.90
19031;DHT22;9648;51.130;13.978;2023-03-01T11:37:40;1.70;99.90
19031;DHT22;9648;51.130;13.978;2023-03-01T11:40:26;1.60;99.90
19031;DHT22;9648;51.130;13.978;2023-03-01T11:43:02;1.70;99.90
19031;DHT22;9648;51.130;13.978;2023-03-01T11:45:43;1.70;99.90
19031;DHT22;9648;51.130;13.978;2023-03-01T11:48:27;1.70;99.90
19031;DHT22;9648;51.130;13.978;2023-03-01T11:51:02;1.80;99.90
19031;DHT22;9648;51.130;13.978;2023-03-01T11:53:49;1.80;99.90
19031;DHT22;9648;51.130;13.978;2023-03-01T11:56:27;1.80;99.90
19031;DHT22;9648;51.130;13.978;2023-03-01T12:02:28;1.80;99.90
19031;DHT22;9648;51.130;13.978;2023-03-01T12:05:14;1.80;99.90
19031;DHT22;9648;51.130;13.978;2023-03-01T12:07:49;1.80;99.90
19031;DHT22;9648;51.130;13.978;2023-03-01T12:10:23;1.80;99.90
19031;DHT22;9648;51.130;13.978;2023-03-01T12:13:03;1.90;99.90
19031;DHT22;9648;51.130;13.978;2023-03-01T12:16:03;1.90;99.90
19031;DHT22;9648;51.130;13.978;2023-03-01T12:18:54;1.90;99.90
19031;DHT22;9648;51.130;13.978;2023-03-01T12:21:39;2.00;99.90
19031;DHT22;9648;51.130;13.978;2023-03-01T12:24:29;2.10;99.90
19031;DHT22;9648;51.130;13.978;2023-03-01T12:27:16;2.10;99.90
19031;DHT22;9648;51.130;13.978;2023-03-01T12:29:54;2.20;99.90
19031;DHT22;9648;51.130;13.978;2023-03-01T12:32:39;2.20;99.90
19031;DHT22;9648;51.130;13.978;2023-03-01T12:38:08;2.30;99.90
19031;DHT22;9648;51.130;13.978;2023-03-01T12:40:51;2.30;99.90
19031;DHT22;9648;51.130;13.978;2023-03-01T12:43:34;2.30;99.90
19031;DHT22;9648;51.130;13.978;2023-03-01T12:46:23;2.40;99.90
19031;DHT22;9648;51.130;13.978;2023-03-01T12:49:01;2.40;99.90
19031;DHT22;9648;51.130;13.978;2023-03-01T12:51:32;2.40;99.90
19031;DHT22;9648;51.130;13.978;2023-03-01T12:54:06;2.50;99.90
19031;DHT22;9648;51.130;13.978;2023-03-01T12:56:37;2.50;99.90
19031;DHT22;9648;51.130;13.978;2023-03-01T12:59:12;2.50;99.90
19031;DHT22;9648;51.130;13.978;2023-03-01T13:01:48;2.60;99.90
19031;DHT22;9648;51.130;13.978;2023-03-01T13:04:31;2.60;99.90
19031;DHT22;9648;51.130;13.978;2023-03-01T13:07:14;2.60;99.90
19031;DHT22;9648;51.130;13.978;2023-03-01T13:09:50;2.70;99.90
19031;DHT22;9648;51.130;13.978;2023-03-01T13:12:42;2.80;99.90
19031;DHT22;9648;51.130;13.978;2023-03-01T13:15:29;2.80;99.90
19031;DHT22;9648;51.130;13.978;2023-03-01T13:17:59;2.90;99.90
19031;DHT22;9648;51.130;13.978;2023-03-01T13:20:30;2.90;99.90
19031;DHT22;9648;51.130;13.978;2023-03-01T13:23:04;3.00;99.90
19031;DHT22;9648;51.130;13.978;2023-03-01T13:25:32;3.00;99.90
19031;DHT22;9648;51.130;13.978;2023-03-01T13:31:04;3.10;99.90
19031;DHT22;9648;51.130;13.978;2023-03-01T13:33:44;3.10;99.90
19031;DHT22;9648;51.130;13.978;2023-03-01T13:36:48;3.10;99.90
19031;DHT22;9648;51.130;13.978;2023-03-01T13:39:28;3.20;99.90
19031;DHT22;9648;51.130;13.978;2023-03-01T13:41:57;3.10;99.90
19031;DHT22;9648;51.130;13.978;2023-03-01T13:44:28;3.20;99.90
19031;DHT22;9648;51.130;13.978;2023-03-01T13:46:59;3.20;99.90
19031;DHT22;9648;51.130;13.978;2023-03-01T13:49:36;3.20;99.90
19031;DHT22;9648;51.130;13.978;2023-03-01T13:52:29;3.20;99.90
19031;DHT22;9648;51.130;13.978;2023-03-01T13:54:58;3.20;99.90
19031;DHT22;9648;51.130;13.978;2023-03-01T13:57:32;3.20;99.90
19031;DHT22;9648;51.130;13.978;2023-03-01T13:59:59;3.20;99.90
19031;DHT22;9648;51.130;13.978;2023-03-01T14:02:26;3.20;99.90
19031;DHT22;9648;51.130;13.978;2023-03-01T14:04:56;3.30;99.90
19031;DHT22;9648;51.130;13.978;2023-03-01T14:07:27;3.30;99.90
19031;DHT22;9648;51.130;13.978;2023-03-01T14:09:58;3.40;99.90
19031;DHT22;9648;51.130;13.978;2023-03-01T14:12:39;3.40;99.90
19031;DHT22;9648;51.130;13.978;2023-03-01T14:15:10;3.50;99.90
19031;DHT22;9648;51.130;13.978;2023-03-01T14:17:49;3.50;99.90
19031;DHT22;9648;51.130;13.978;2023-03-01T14:20:21;3.60;99.90
19031;DHT22;9648;51.130;13.978;2023-03-01T14:22:52;3.50;99.90
19031;DHT22;9648;51.130;13.978;2023-03-01T14:25:28;3.60;99.90
19031;DHT22;9648;51.130;13.978;2023-03-01T14:27:59;3.60;99.90
19031;DHT22;9648;51.130;13.978;2023-03-01T14:30:30;3.70;99.90
19031;DHT22;9648;51.130;13.978;2023-03-01T14:32:59;3.70;99.90
19031;DHT22;9648;51.130;13.978;2023-03-01T14:35:28;3.70;99.90
19031;DHT22;9648;51.130;13.978;2023-03-01T14:37:57;3.70;99.90
19031;DHT22;9648;51.130;13.978;2023-03-01T14:40:27;3.70;99.90
19031;DHT22;9648;51.130;13.978;2023-03-01T14:42:56;3.80;99.90
19031;DHT22;9648;51.130;13.978;2023-03-01T14:45:24;3.80;99.90
19031;DHT22;9648;51.130;13.978;2023-03-01T14:47:52;3.80;99.90
19031;DHT22;9648;51.130;13.978;2023-03-01T14:50:24;3.80;99.90
19031;DHT22;9648;51.130;13.978;2023-03-01T14:52:53;3.90;99.90
19031;DHT22;9648;51.130;13.978;2023-03-01T14:55:26;3.80;99.90
19031;DHT22;9648;51.130;13.978;2023-03-01T14:57:53;3.80;99.90
19031;DHT22;9648;51.130;13.978;2023-03-01T15:00:22;3.80;99.90
19031;DHT22;9648;51.130;13.978;2023-03-01T15:02:51;3.70;99.90
19031;DHT22;9648;51.130;13.978;2023-03-01T15:05:24;3.80;99.90
19031;DHT22;9648;51.130;13.978;2023-03-01T15:07:52;3.70;99.90
19031;DHT22;9648;51.130;13.978;2023-03-01T15:10:22;3.70;99.90
19031;DHT22;9648;51.130;13.978;2023-03-01T15:12:49;3.70;99.90
19031;DHT22;9648;51.130;13.978;2023-03-01T15:15:37;3.60;99.90
19031;DHT22;9648;51.130;13.978;2023-03-01T15:18:14;3.60;99.90
19031;DHT22;9648;51.130;13.978;2023-03-01T15:20:42;3.50;99.90
19031;DHT22;9648;51.130;13.978;2023-03-01T15:23:19;3.50;99.90
19031;DHT22;9648;51.130;13.978;2023-03-01T15:25:49;3.50;99.90
19031;DHT22;9648;51.130;13.978;2023-03-01T15:28:23;3.40;99.90
19031;DHT22;9648;51.130;13.978;2023-03-01T15:30:54;3.40;99.90
19031;DHT22;9648;51.130;13.978;2023-03-01T15:33:36;3.40;99.90
19031;DHT22;9648;51.130;13.978;2023-03-01T15:36:31;3.30;99.90
19031;DHT22;9648;51.130;13.978;2023-03-01T15:38:58;3.30;99.90
19031;DHT22;9648;51.130;13.978;2023-03-01T15:41:29;3.20;99.90
19031;DHT22;9648;51.130;13.978;2023-03-01T15:43:58;3.20;99.90
19031;DHT22;9648;51.130;13.978;2023-03-01T15:46:27;3.10;99.90
19031;DHT22;9648;51.130;13.978;2023-03-01T15:48:57;3.10;99.90
19031;DHT22;9648;51.130;13.978;2023-03-01T15:51:31;3.10;99.90
19031;DHT22;9648;51.130;13.978;2023-03-01T15:54:00;3.00;99.90
19031;DHT22;9648;51.130;13.978;2023-03-01T15:56:29;3.00;99.90
19031;DHT22;9648;51.130;13.978;2023-03-01T15:59:00;2.90;99.90
19031;DHT22;9648;51.130;13.978;2023-03-01T16:01:30;2.90;99.90
19031;DHT22;9648;51.130;13.978;2023-03-01T16:03:59;2.80;99.90
19031;DHT22;9648;51.130;13.978;2023-03-01T16:06:26;2.70;99.90
19031;DHT22;9648;51.130;13.978;2023-03-01T16:08:52;2.70;99.90